sensor_id;sensor_type;location;lat;lon;timestamp;P1;durP1;ratioP1;P2;durP2;ratioP2
59310;SDS011;45078;51.654;21.250;2022-12-01T00:00:40;13.85;;;6.95;;
59310;SDS011;45078;51.654;21.250;2022-12-01T00:03:06;12.48;;;7.07;;
59310;SDS011;45078;51.654;21.250;2022-12-01T00:05:33;15.35;;;7.38;;
59310;SDS011;45078;51.654;21.250;2022-12-01T00:07:59;14.38;;;6.93;;
59310;SDS011;45078;51.654;21.250;2022-12-01T00:10:26;15.32;;;6.80;;
59310;SDS011;45078;51.654;21.250;2022-12-01T00:15:20;12.88;;;6.45;;
59310;SDS011;45078;51.654;21.250;2022-12-01T00:17:46;14.60;;;7.30;;
59310;SDS011;45078;51.654;21.250;2022-12-01T00:20:13;18.13;;;8.32;;
59310;SDS011;45078;51.654;21.250;2022-12-01T00:22:43;14.57;;;7.25;;
59310;SDS011;45078;51.654;21.250;2022-12-01T00:25:10;17.17;;;8.27;;
59310;SDS011;45078;51.654;21.250;2022-12-01T00:27:37;13.70;;;6.43;;
59310;SDS011;45078;51.654;21.250;2022-12-01T00:30:04;13.88;;;7.35;;
59310;SDS011;45078;51.654;21.250;2022-12-01T00:32:32;13.75;;;6.82;;
59310;SDS011;45078;51.654;21.250;2022-12-01T00:34:57;16.17;;;7.35;;
59310;SDS011;45078;51.654;21.250;2022-12-01T00:37:23;15.40;;;7.60;;
59310;SDS011;45078;51.654;21.250;2022-12-01T00:39:49;16.15;;;8.20;;
59310;SDS011;45078;51.654;21.250;2022-12-01T00:42:15;16.67;;;7.88;;
59310;SDS011;45078;51.654;21.250;2022-12-01T00:44:41;16.50;;;7.00;;
59310;SDS011;45078;51.654;21.250;2022-12-01T00:47:06;17.48;;;7.97;;
59310;SDS011;45078;51.654;21.250;2022-12-01T00:49:32;15.48;;;7.20;;
59310;SDS011;45078;51.654;21.250;2022-12-01T00:52:01;15.80;;;7.57;;
59310;SDS011;45078;51.654;21.250;2022-12-01T00:54:27;17.40;;;8.35;;
59310;SDS011;45078;51.654;21.250;2022-12-01T00:56:56;15.57;;;7.30;;
59310;SDS011;45078;51.654;21.250;2022-12-01T00:59:25;14.32;;;6.50;;
59310;SDS011;45078;51.654;21.250;2022-12-01T01:01:51;15.15;;;7.63;;
59310;SDS011;45078;51.654;21.250;2022-12-01T01:04:17;15.98;;;8.23;;
59310;SDS011;45078;51.654;21.250;2022-12-01T01:06:43;14.90;;;7.47;;
59310;SDS011;45078;51.654;21.250;2022-12-01T01:09:10;14.98;;;7.15;;
59310;SDS011;45078;51.654;21.250;2022-12-01T01:11:37;14.82;;;7.90;;
59310;SDS011;45078;51.654;21.250;2022-12-01T01:14:03;15.38;;;7.28;;
59310;SDS011;45078;51.654;21.250;2022-12-01T01:16:29;11.95;;;6.97;;
59310;SDS011;45078;51.654;21.250;2022-12-01T01:18:55;20.92;;;9.00;;
59310;SDS011;45078;51.654;21.250;2022-12-01T01:21:22;18.42;;;8.73;;
59310;SDS011;45078;51.654;21.250;2022-12-01T01:23:48;13.32;;;7.30;;
59310;SDS011;45078;51.654;21.250;2022-12-01T01:28:43;15.25;;;8.40;;
59310;SDS011;45078;51.654;21.250;2022-12-01T01:31:11;18.88;;;8.20;;
59310;SDS011;45078;51.654;21.250;2022-12-01T01:33:38;18.38;;;8.98;;
59310;SDS011;45078;51.654;21.250;2022-12-01T01:36:05;19.00;;;9.43;;
59310;SDS011;45078;51.654;21.250;2022-12-01T01:38:31;17.00;;;8.35;;
59310;SDS011;45078;51.654;21.250;2022-12-01T01:40:57;18.52;;;9.25;;
59310;SDS011;45078;51.654;21.250;2022-12-01T01:46:21;13.18;;;7.60;;
59310;SDS011;45078;51.654;21.250;2022-12-01T01:48:50;15.50;;;7.55;;
59310;SDS011;45078;51.654;21.250;2022-12-01T01:54:06;15.40;;;8.68;;
59310;SDS011;45078;51.654;21.250;2022-12-01T01:56:39;19.33;;;10.18;;
59310;SDS011;45078;51.654;21.250;2022-12-01T01:59:10;15.27;;;7.43;;
59310;SDS011;45078;51.654;21.250;2022-12-01T02:01:38;18.60;;;8.20;;
59310;SDS011;45078;51.654;21.250;2022-12-01T02:04:04;13.38;;;7.13;;
59310;SDS011;45078;51.654;21.250;2022-12-01T02:06:31;13.75;;;7.22;;
59310;SDS011;45078;51.654;21.250;2022-12-01T02:08:57;13.73;;;7.43;;
59310;SDS011;45078;51.654;21.250;2022-12-01T02:17:25;14.63;;;7.53;;
59310;SDS011;45078;51.654;21.250;2022-12-01T02:25:32;14.52;;;7.43;;
59310;SDS011;45078;51.654;21.250;2022-12-01T02:31:25;15.40;;;7.20;;
59310;SDS011;45078;51.654;21.250;2022-12-01T02:36:48;12.35;;;6.88;;
59310;SDS011;45078;51.654;21.250;2022-12-01T02:45:16;15.80;;;7.93;;
59310;SDS011;45078;51.654;21.250;2022-12-01T02:47:48;11.27;;;6.28;;
59310;SDS011;45078;51.654;21.250;2022-12-01T02:50:17;15.25;;;7.50;;
59310;SDS011;45078;51.654;21.250;2022-12-01T02:52:46;17.27;;;8.52;;
59310;SDS011;45078;51.654;21.250;2022-12-01T02:55:12;19.60;;;8.82;;
59310;SDS011;45078;51.654;21.250;2022-12-01T02:57:38;18.55;;;8.65;;
59310;SDS011;45078;51.654;21.250;2022-12-01T03:00:04;18.85;;;8.63;;
59310;SDS011;45078;51.654;21.250;2022-12-01T03:05:45;19.17;;;8.77;;
59310;SDS011;45078;51.654;21.250;2022-12-01T03:10:58;18.33;;;7.10;;
59310;SDS011;45078;51.654;21.250;2022-12-01T03:13:37;16.58;;;8.32;;
59310;SDS011;45078;51.654;21.250;2022-12-01T03:21:28;12.27;;;7.00;;
59310;SDS011;45078;51.654;21.250;2022-12-01T03:24:00;16.25;;;8.18;;
59310;SDS011;45078;51.654;21.250;2022-12-01T03:26:41;14.05;;;7.20;;
59310;SDS011;45078;51.654;21.250;2022-12-01T03:29:17;13.07;;;7.22;;
59310;SDS011;45078;51.654;21.250;2022-12-01T03:31:59;14.45;;;7.28;;
59310;SDS011;45078;51.654;21.250;2022-12-01T03:34:35;13.90;;;7.25;;
59310;SDS011;45078;51.654;21.250;2022-12-01T03:37:32;13.85;;;7.63;;
59310;SDS011;45078;51.654;21.250;2022-12-01T03:40:04;14.40;;;7.38;;
59310;SDS011;45078;51.654;21.250;2022-12-01T03:42:43;15.65;;;7.78;;
59310;SDS011;45078;51.654;21.250;2022-12-01T03:45:15;13.60;;;7.22;;
59310;SDS011;45078;51.654;21.250;2022-12-01T03:47:46;19.30;;;8.82;;
59310;SDS011;45078;51.654;21.250;2022-12-01T03:50:12;19.38;;;7.82;;
59310;SDS011;45078;51.654;21.250;2022-12-01T03:52:44;18.88;;;9.05;;
59310;SDS011;45078;51.654;21.250;2022-12-01T03:58:00;19.08;;;8.50;;
59310;SDS011;45078;51.654;21.250;2022-12-01T04:00:42;16.95;;;7.28;;
59310;SDS011;45078;51.654;21.250;2022-12-01T04:03:17;14.95;;;7.38;;
59310;SDS011;45078;51.654;21.250;2022-12-01T04:05:47;13.57;;;6.70;;
59310;SDS011;45078;51.654;21.250;2022-12-01T04:08:12;13.55;;;7.28;;
59310;SDS011;45078;51.654;21.250;2022-12-01T04:10:38;13.25;;;6.93;;
59310;SDS011;45078;51.654;21.250;2022-12-01T04:13:04;12.18;;;6.88;;
59310;SDS011;45078;51.654;21.250;2022-12-01T04:15:36;14.38;;;6.50;;
59310;SDS011;45078;51.654;21.250;2022-12-01T04:18:02;12.18;;;6.72;;
59310;SDS011;45078;51.654;21.250;2022-12-01T04:20:28;10.43;;;6.07;;
59310;SDS011;45078;51.654;21.250;2022-12-01T04:22:53;12.43;;;6.60;;
59310;SDS011;45078;51.654;21.250;2022-12-01T04:25:19;11.35;;;6.00;;
59310;SDS011;45078;51.654;21.250;2022-12-01T04:27:45;9.52;;;4.70;;
59310;SDS011;45078;51.654;21.250;2022-12-01T04:30:11;11.57;;;6.07;;
59310;SDS011;45078;51.654;21.250;2022-12-01T04:32:38;11.27;;;6.40;;
59310;SDS011;45078;51.654;21.250;2022-12-01T04:35:05;10.43;;;5.65;;
59310;SDS011;45078;51.654;21.250;2022-12-01T04:37:32;11.85;;;5.47;;
59310;SDS011;45078;51.654;21.250;2022-12-01T04:39:58;11.30;;;5.05;;
59310;SDS011;45078;51.654;21.250;2022-12-01T04:42:24;11.80;;;6.43;;
59310;SDS011;45078;51.654;21.250;2022-12-01T04:44:49;11.07;;;5.70;;
59310;SDS011;45078;51.654;21.250;2022-12-01T04:47:15;10.90;;;5.45;;
59310;SDS011;45078;51.654;21.250;2022-12-01T04:49:41;11.35;;;5.85;;
59310;SDS011;45078;51.654;21.250;2022-12-01T04:52:07;10.30;;;4.85;;
59310;SDS011;45078;51.654;21.250;2022-12-01T04:54:33;10.15;;;5.05;;
59310;SDS011;45078;51.654;21.250;2022-12-01T04:56:58;11.45;;;6.05;;
59310;SDS011;45078;51.654;21.250;2022-12-01T04:59:24;7.70;;;4.85;;
59310;SDS011;45078;51.654;21.250;2022-12-01T05:01:50;12.30;;;6.35;;
59310;SDS011;45078;51.654;21.250;2022-12-01T05:04:16;13.20;;;5.85;;
59310;SDS011;45078;51.654;21.250;2022-12-01T05:06:42;13.88;;;6.25;;
59310;SDS011;45078;51.654;21.250;2022-12-01T05:09:09;12.25;;;5.75;;
59310;SDS011;45078;51.654;21.250;2022-12-01T05:11:38;10.45;;;6.18;;
59310;SDS011;45078;51.654;21.250;2022-12-01T05:14:04;11.77;;;5.97;;
59310;SDS011;45078;51.654;21.250;2022-12-01T05:16:31;9.23;;;5.43;;
59310;SDS011;45078;51.654;21.250;2022-12-01T05:18:58;14.55;;;5.78;;
59310;SDS011;45078;51.654;21.250;2022-12-01T05:21:44;11.65;;;5.97;;
59310;SDS011;45078;51.654;21.250;2022-12-01T05:24:12;11.18;;;5.43;;
59310;SDS011;45078;51.654;21.250;2022-12-01T05:26:39;11.95;;;6.28;;
59310;SDS011;45078;51.654;21.250;2022-12-01T05:29:05;12.50;;;5.90;;
59310;SDS011;45078;51.654;21.250;2022-12-01T05:31:32;14.13;;;6.35;;
59310;SDS011;45078;51.654;21.250;2022-12-01T05:33:57;12.07;;;6.60;;
59310;SDS011;45078;51.654;21.250;2022-12-01T05:36:24;13.15;;;6.68;;
59310;SDS011;45078;51.654;21.250;2022-12-01T05:38:50;13.93;;;6.10;;
59310;SDS011;45078;51.654;21.250;2022-12-01T05:41:15;13.02;;;6.72;;
59310;SDS011;45078;51.654;21.250;2022-12-01T05:43:41;11.77;;;6.22;;
59310;SDS011;45078;51.654;21.250;2022-12-01T05:46:07;10.23;;;6.00;;
59310;SDS011;45078;51.654;21.250;2022-12-01T05:48:33;13.27;;;5.65;;
59310;SDS011;45078;51.654;21.250;2022-12-01T05:50:59;13.45;;;7.13;;
59310;SDS011;45078;51.654;21.250;2022-12-01T05:53:31;14.88;;;6.95;;
59310;SDS011;45078;51.654;21.250;2022-12-01T05:55:56;15.88;;;6.43;;
59310;SDS011;45078;51.654;21.250;2022-12-01T05:58:22;13.55;;;7.03;;
59310;SDS011;45078;51.654;21.250;2022-12-01T06:00:48;11.38;;;6.30;;
59310;SDS011;45078;51.654;21.250;2022-12-01T06:03:14;17.17;;;7.10;;
59310;SDS011;45078;51.654;21.250;2022-12-01T06:05:40;12.85;;;7.07;;
59310;SDS011;45078;51.654;21.250;2022-12-01T06:08:06;10.88;;;6.00;;
59310;SDS011;45078;51.654;21.250;2022-12-01T06:10:32;11.68;;;6.50;;
59310;SDS011;45078;51.654;21.250;2022-12-01T06:12:58;13.95;;;7.28;;
59310;SDS011;45078;51.654;21.250;2022-12-01T06:15:24;13.93;;;7.03;;
59310;SDS011;45078;51.654;21.250;2022-12-01T06:17:50;12.40;;;6.20;;
59310;SDS011;45078;51.654;21.250;2022-12-01T06:20:16;12.05;;;6.15;;
59310;SDS011;45078;51.654;21.250;2022-12-01T06:22:42;13.13;;;6.75;;
59310;SDS011;45078;51.654;21.250;2022-12-01T06:25:08;12.75;;;6.07;;
59310;SDS011;45078;51.654;21.250;2022-12-01T06:27:35;13.77;;;6.55;;
59310;SDS011;45078;51.654;21.250;2022-12-01T06:30:01;15.43;;;7.00;;
59310;SDS011;45078;51.654;21.250;2022-12-01T06:32:27;12.70;;;6.32;;
59310;SDS011;45078;51.654;21.250;2022-12-01T06:34:53;11.80;;;6.43;;
59310;SDS011;45078;51.654;21.250;2022-12-01T06:37:19;12.30;;;6.60;;
59310;SDS011;45078;51.654;21.250;2022-12-01T06:39:45;12.68;;;6.25;;
59310;SDS011;45078;51.654;21.250;2022-12-01T06:42:11;11.20;;;6.57;;
59310;SDS011;45078;51.654;21.250;2022-12-01T06:44:36;15.45;;;7.57;;
59310;SDS011;45078;51.654;21.250;2022-12-01T06:47:03;14.88;;;7.32;;
59310;SDS011;45078;51.654;21.250;2022-12-01T06:49:29;13.43;;;6.57;;
59310;SDS011;45078;51.654;21.250;2022-12-01T06:51:54;14.88;;;6.35;;
59310;SDS011;45078;51.654;21.250;2022-12-01T06:54:20;15.10;;;7.47;;
59310;SDS011;45078;51.654;21.250;2022-12-01T06:56:46;14.32;;;6.22;;
59310;SDS011;45078;51.654;21.250;2022-12-01T06:59:12;13.10;;;6.45;;
59310;SDS011;45078;51.654;21.250;2022-12-01T07:01:38;15.18;;;6.55;;
59310;SDS011;45078;51.654;21.250;2022-12-01T07:04:03;12.05;;;7.03;;
59310;SDS011;45078;51.654;21.250;2022-12-01T07:06:29;14.80;;;7.53;;
59310;SDS011;45078;51.654;21.250;2022-12-01T07:08:56;11.80;;;5.80;;
59310;SDS011;45078;51.654;21.250;2022-12-01T07:11:22;14.23;;;7.00;;
59310;SDS011;45078;51.654;21.250;2022-12-01T07:13:47;15.40;;;6.93;;
59310;SDS011;45078;51.654;21.250;2022-12-01T07:16:18;14.38;;;6.97;;
59310;SDS011;45078;51.654;21.250;2022-12-01T07:18:44;16.58;;;7.10;;
59310;SDS011;45078;51.654;21.250;2022-12-01T07:21:10;12.32;;;6.72;;
59310;SDS011;45078;51.654;21.250;2022-12-01T07:23:37;15.75;;;7.45;;
59310;SDS011;45078;51.654;21.250;2022-12-01T07:26:05;13.52;;;7.07;;
59310;SDS011;45078;51.654;21.250;2022-12-01T07:28:34;13.77;;;7.57;;
59310;SDS011;45078;51.654;21.250;2022-12-01T07:31:04;18.15;;;7.85;;
59310;SDS011;45078;51.654;21.250;2022-12-01T07:33:31;13.85;;;7.28;;
59310;SDS011;45078;51.654;21.250;2022-12-01T07:35:57;16.55;;;7.75;;
59310;SDS011;45078;51.654;21.250;2022-12-01T07:38:23;14.23;;;8.02;;
59310;SDS011;45078;51.654;21.250;2022-12-01T07:40:49;18.35;;;7.07;;
59310;SDS011;45078;51.654;21.250;2022-12-01T07:43:15;11.90;;;6.50;;
59310;SDS011;45078;51.654;21.250;2022-12-01T07:45:40;13.02;;;6.68;;
59310;SDS011;45078;51.654;21.250;2022-12-01T07:48:06;14.75;;;7.20;;
59310;SDS011;45078;51.654;21.250;2022-12-01T07:50:32;12.60;;;6.97;;
59310;SDS011;45078;51.654;21.250;2022-12-01T07:52:57;16.85;;;6.53;;
59310;SDS011;45078;51.654;21.250;2022-12-01T07:55:23;15.13;;;6.88;;
59310;SDS011;45078;51.654;21.250;2022-12-01T07:57:49;13.10;;;6.93;;
59310;SDS011;45078;51.654;21.250;2022-12-01T08:00:18;17.90;;;8.45;;
59310;SDS011;45078;51.654;21.250;2022-12-01T08:02:46;14.02;;;7.05;;
59310;SDS011;45078;51.654;21.250;2022-12-01T08:05:13;16.30;;;8.00;;
59310;SDS011;45078;51.654;21.250;2022-12-01T08:07:39;15.38;;;7.93;;
59310;SDS011;45078;51.654;21.250;2022-12-01T08:10:05;13.15;;;7.65;;
59310;SDS011;45078;51.654;21.250;2022-12-01T08:12:31;14.45;;;6.88;;
59310;SDS011;45078;51.654;21.250;2022-12-01T08:14:57;15.15;;;7.43;;
59310;SDS011;45078;51.654;21.250;2022-12-01T08:17:22;16.70;;;7.72;;
59310;SDS011;45078;51.654;21.250;2022-12-01T08:19:48;12.43;;;7.35;;
59310;SDS011;45078;51.654;21.250;2022-12-01T08:22:14;15.60;;;7.45;;
59310;SDS011;45078;51.654;21.250;2022-12-01T08:24:40;15.75;;;7.45;;
59310;SDS011;45078;51.654;21.250;2022-12-01T08:27:06;14.27;;;6.35;;
59310;SDS011;45078;51.654;21.250;2022-12-01T08:29:32;18.30;;;8.13;;
59310;SDS011;45078;51.654;21.250;2022-12-01T08:31:59;15.52;;;7.32;;
59310;SDS011;45078;51.654;21.250;2022-12-01T08:34:25;14.68;;;7.85;;
59310;SDS011;45078;51.654;21.250;2022-12-01T08:36:51;16.13;;;8.00;;
59310;SDS011;45078;51.654;21.250;2022-12-01T08:39:17;13.02;;;6.90;;
59310;SDS011;45078;51.654;21.250;2022-12-01T08:41:43;16.05;;;8.23;;
59310;SDS011;45078;51.654;21.250;2022-12-01T08:44:09;21.15;;;7.45;;
59310;SDS011;45078;51.654;21.250;2022-12-01T08:46:35;17.20;;;7.65;;
59310;SDS011;45078;51.654;21.250;2022-12-01T08:49:04;16.95;;;7.28;;
59310;SDS011;45078;51.654;21.250;2022-12-01T08:51:31;15.40;;;7.45;;
59310;SDS011;45078;51.654;21.250;2022-12-01T08:53:57;15.48;;;8.40;;
59310;SDS011;45078;51.654;21.250;2022-12-01T08:56:25;14.27;;;6.55;;
59310;SDS011;45078;51.654;21.250;2022-12-01T08:58:53;18.40;;;8.00;;
59310;SDS011;45078;51.654;21.250;2022-12-01T09:01:19;19.70;;;8.48;;
59310;SDS011;45078;51.654;21.250;2022-12-01T09:03:46;18.23;;;8.35;;
59310;SDS011;45078;51.654;21.250;2022-12-01T09:06:13;19.33;;;9.32;;
59310;SDS011;45078;51.654;21.250;2022-12-01T09:08:40;20.00;;;9.38;;
59310;SDS011;45078;51.654;21.250;2022-12-01T09:11:08;23.65;;;9.23;;
59310;SDS011;45078;51.654;21.250;2022-12-01T09:13:36;21.42;;;8.88;;
59310;SDS011;45078;51.654;21.250;2022-12-01T09:16:08;22.33;;;8.95;;
59310;SDS011;45078;51.654;21.250;2022-12-01T09:18:36;16.40;;;8.27;;
59310;SDS011;45078;51.654;21.250;2022-12-01T09:23:48;13.27;;;7.05;;
59310;SDS011;45078;51.654;21.250;2022-12-01T09:26:15;18.02;;;8.65;;
59310;SDS011;45078;51.654;21.250;2022-12-01T09:28:47;13.85;;;7.90;;
59310;SDS011;45078;51.654;21.250;2022-12-01T09:33:44;12.88;;;7.00;;
59310;SDS011;45078;51.654;21.250;2022-12-01T09:36:11;16.23;;;8.25;;
59310;SDS011;45078;51.654;21.250;2022-12-01T09:38:37;17.20;;;7.95;;
59310;SDS011;45078;51.654;21.250;2022-12-01T09:41:08;15.90;;;8.35;;
59310;SDS011;45078;51.654;21.250;2022-12-01T09:43:42;17.65;;;8.30;;
59310;SDS011;45078;51.654;21.250;2022-12-01T09:46:13;21.38;;;8.23;;
59310;SDS011;45078;51.654;21.250;2022-12-01T09:48:44;19.57;;;8.23;;
59310;SDS011;45078;51.654;21.250;2022-12-01T09:51:15;22.65;;;9.65;;
59310;SDS011;45078;51.654;21.250;2022-12-01T09:53:47;22.23;;;9.05;;
59310;SDS011;45078;51.654;21.250;2022-12-01T09:56:19;18.27;;;8.70;;
59310;SDS011;45078;51.654;21.250;2022-12-01T09:58:47;14.90;;;7.30;;
59310;SDS011;45078;51.654;21.250;2022-12-01T10:01:17;18.85;;;8.85;;
59310;SDS011;45078;51.654;21.250;2022-12-01T10:03:52;17.67;;;8.48;;
59310;SDS011;45078;51.654;21.250;2022-12-01T10:06:43;17.42;;;8.15;;
59310;SDS011;45078;51.654;21.250;2022-12-01T10:12:06;13.82;;;6.70;;
59310;SDS011;45078;51.654;21.250;2022-12-01T10:14:42;16.05;;;6.93;;
59310;SDS011;45078;51.654;21.250;2022-12-01T10:20:27;12.38;;;6.68;;
59310;SDS011;45078;51.654;21.250;2022-12-01T10:25:56;10.20;;;5.28;;
59310;SDS011;45078;51.654;21.250;2022-12-01T10:31:35;14.07;;;6.57;;
59310;SDS011;45078;51.654;21.250;2022-12-01T10:36:49;13.43;;;5.97;;
59310;SDS011;45078;51.654;21.250;2022-12-01T10:39:23;15.65;;;6.90;;
59310;SDS011;45078;51.654;21.250;2022-12-01T10:42:01;13.00;;;6.07;;
59310;SDS011;45078;51.654;21.250;2022-12-01T10:44:30;18.25;;;7.43;;
59310;SDS011;45078;51.654;21.250;2022-12-01T10:46:58;17.27;;;7.72;;
59310;SDS011;45078;51.654;21.250;2022-12-01T10:49:39;12.10;;;6.25;;
59310;SDS011;45078;51.654;21.250;2022-12-01T10:52:05;15.20;;;6.90;;
59310;SDS011;45078;51.654;21.250;2022-12-01T10:54:33;14.50;;;6.70;;
59310;SDS011;45078;51.654;21.250;2022-12-01T10:57:01;16.73;;;7.28;;
59310;SDS011;45078;51.654;21.250;2022-12-01T11:02:02;20.77;;;7.63;;
59310;SDS011;45078;51.654;21.250;2022-12-01T11:04:39;14.50;;;6.45;;
59310;SDS011;45078;51.654;21.250;2022-12-01T11:09:41;11.82;;;6.45;;
59310;SDS011;45078;51.654;21.250;2022-12-01T11:12:12;13.63;;;6.50;;
59310;SDS011;45078;51.654;21.250;2022-12-01T11:17:14;13.27;;;6.95;;
59310;SDS011;45078;51.654;21.250;2022-12-01T11:19:41;14.60;;;6.38;;
59310;SDS011;45078;51.654;21.250;2022-12-01T11:24:56;15.10;;;7.55;;
59310;SDS011;45078;51.654;21.250;2022-12-01T11:27:28;13.93;;;6.97;;
59310;SDS011;45078;51.654;21.250;2022-12-01T11:29:55;11.68;;;6.45;;
59310;SDS011;45078;51.654;21.250;2022-12-01T11:35:02;13.32;;;6.75;;
59310;SDS011;45078;51.654;21.250;2022-12-01T11:37:36;10.52;;;6.13;;
59310;SDS011;45078;51.654;21.250;2022-12-01T11:40:29;12.43;;;6.45;;
59310;SDS011;45078;51.654;21.250;2022-12-01T11:43:02;9.23;;;5.47;;
59310;SDS011;45078;51.654;21.250;2022-12-01T11:45:36;16.42;;;7.07;;
59310;SDS011;45078;51.654;21.250;2022-12-01T11:50:37;11.90;;;6.38;;
59310;SDS011;45078;51.654;21.250;2022-12-01T11:53:25;11.93;;;5.30;;
59310;SDS011;45078;51.654;21.250;2022-12-01T11:58:49;13.10;;;4.65;;
59310;SDS011;45078;51.654;21.250;2022-12-01T12:04:20;11.75;;;5.82;;
59310;SDS011;45078;51.654;21.250;2022-12-01T12:12:23;8.95;;;5.13;;
59310;SDS011;45078;51.654;21.250;2022-12-01T12:18:11;9.40;;;4.75;;
59310;SDS011;45078;51.654;21.250;2022-12-01T12:24:00;10.55;;;5.68;;
59310;SDS011;45078;51.654;21.250;2022-12-01T12:26:29;11.07;;;6.10;;
59310;SDS011;45078;51.654;21.250;2022-12-01T12:29:10;9.98;;;4.97;;
59310;SDS011;45078;51.654;21.250;2022-12-01T12:31:39;15.25;;;6.65;;
59310;SDS011;45078;51.654;21.250;2022-12-01T12:53:31;15.50;;;7.65;;
59310;SDS011;45078;51.654;21.250;2022-12-01T12:56:09;18.58;;;7.90;;
59310;SDS011;45078;51.654;21.250;2022-12-01T12:58:48;15.13;;;7.80;;
59310;SDS011;45078;51.654;21.250;2022-12-01T13:03:57;19.85;;;8.60;;
59310;SDS011;45078;51.654;21.250;2022-12-01T13:09:22;12.57;;;7.18;;
59310;SDS011;45078;51.654;21.250;2022-12-01T13:12:03;17.98;;;7.65;;
59310;SDS011;45078;51.654;21.250;2022-12-01T13:17:39;14.95;;;7.35;;
59310;SDS011;45078;51.654;21.250;2022-12-01T13:20:15;17.70;;;8.35;;
59310;SDS011;45078;51.654;21.250;2022-12-01T13:22:43;12.85;;;6.95;;
59310;SDS011;45078;51.654;21.250;2022-12-01T13:25:14;19.13;;;7.25;;
59310;SDS011;45078;51.654;21.250;2022-12-01T13:27:44;21.25;;;8.27;;
59310;SDS011;45078;51.654;21.250;2022-12-01T13:30:24;18.20;;;8.50;;
59310;SDS011;45078;51.654;21.250;2022-12-01T13:32:57;18.40;;;8.07;;
59310;SDS011;45078;51.654;21.250;2022-12-01T13:35:30;12.68;;;7.78;;
59310;SDS011;45078;51.654;21.250;2022-12-01T13:43:53;15.95;;;7.18;;
59310;SDS011;45078;51.654;21.250;2022-12-01T13:46:48;13.50;;;7.32;;
59310;SDS011;45078;51.654;21.250;2022-12-01T14:00:30;15.77;;;8.32;;
59310;SDS011;45078;51.654;21.250;2022-12-01T14:08:26;15.52;;;8.38;;
59310;SDS011;45078;51.654;21.250;2022-12-01T14:11:18;22.58;;;9.90;;
59310;SDS011;45078;51.654;21.250;2022-12-01T14:13:55;16.27;;;8.07;;
59310;SDS011;45078;51.654;21.250;2022-12-01T14:16:21;18.90;;;9.05;;
59310;SDS011;45078;51.654;21.250;2022-12-01T14:18:53;24.15;;;9.73;;
59310;SDS011;45078;51.654;21.250;2022-12-01T14:24:05;15.70;;;8.13;;
59310;SDS011;45078;51.654;21.250;2022-12-01T14:26:31;14.23;;;6.82;;
59310;SDS011;45078;51.654;21.250;2022-12-01T14:29:08;20.15;;;9.25;;
59310;SDS011;45078;51.654;21.250;2022-12-01T14:34:17;21.70;;;9.48;;
59310;SDS011;45078;51.654;21.250;2022-12-01T14:39:34;28.02;;;9.75;;
59310;SDS011;45078;51.654;21.250;2022-12-01T14:45:16;21.23;;;10.18;;
59310;SDS011;45078;51.654;21.250;2022-12-01T14:47:55;18.95;;;9.65;;
59310;SDS011;45078;51.654;21.250;2022-12-01T14:50:35;25.00;;;10.13;;
59310;SDS011;45078;51.654;21.250;2022-12-01T14:53:06;22.83;;;10.85;;
59310;SDS011;45078;51.654;21.250;2022-12-01T14:55:41;19.98;;;9.77;;
59310;SDS011;45078;51.654;21.250;2022-12-01T14:58:49;22.63;;;10.82;;
59310;SDS011;45078;51.654;21.250;2022-12-01T15:01:05;25.75;;;10.70;;
59310;SDS011;45078;51.654;21.250;2022-12-01T15:03:46;19.58;;;9.13;;
59310;SDS011;45078;51.654;21.250;2022-12-01T15:06:16;15.23;;;8.73;;
59310;SDS011;45078;51.654;21.250;2022-12-01T15:08:43;19.77;;;9.80;;
59310;SDS011;45078;51.654;21.250;2022-12-01T15:11:23;22.63;;;10.20;;
59310;SDS011;45078;51.654;21.250;2022-12-01T15:13:53;16.77;;;8.82;;
59310;SDS011;45078;51.654;21.250;2022-12-01T15:16:21;16.77;;;8.80;;
59310;SDS011;45078;51.654;21.250;2022-12-01T15:18:48;19.67;;;8.63;;
59310;SDS011;45078;51.654;21.250;2022-12-01T15:21:16;25.13;;;11.07;;
59310;SDS011;45078;51.654;21.250;2022-12-01T15:26:30;17.67;;;9.45;;
59310;SDS011;45078;51.654;21.250;2022-12-01T15:31:49;26.83;;;11.38;;
59310;SDS011;45078;51.654;21.250;2022-12-01T15:34:51;21.92;;;9.50;;
59310;SDS011;45078;51.654;21.250;2022-12-01T15:37:16;25.40;;;9.60;;
59310;SDS011;45078;51.654;21.250;2022-12-01T15:42:33;20.50;;;9.30;;
59310;SDS011;45078;51.654;21.250;2022-12-01T15:45:11;19.92;;;9.55;;
59310;SDS011;45078;51.654;21.250;2022-12-01T15:53:02;21.35;;;9.40;;
59310;SDS011;45078;51.654;21.250;2022-12-01T15:55:33;17.42;;;9.40;;
59310;SDS011;45078;51.654;21.250;2022-12-01T15:58:05;22.08;;;10.48;;
59310;SDS011;45078;51.654;21.250;2022-12-01T16:00:33;23.70;;;11.60;;
59310;SDS011;45078;51.654;21.250;2022-12-01T16:02:59;25.27;;;10.93;;
59310;SDS011;45078;51.654;21.250;2022-12-01T16:05:29;23.60;;;10.23;;
59310;SDS011;45078;51.654;21.250;2022-12-01T16:07:57;28.88;;;11.77;;
59310;SDS011;45078;51.654;21.250;2022-12-01T16:10:37;19.73;;;11.02;;
59310;SDS011;45078;51.654;21.250;2022-12-01T16:22:11;17.05;;;9.88;;
59310;SDS011;45078;51.654;21.250;2022-12-01T16:24:41;19.33;;;9.80;;
59310;SDS011;45078;51.654;21.250;2022-12-01T16:29:56;20.80;;;10.02;;
59310;SDS011;45078;51.654;21.250;2022-12-01T16:34:59;14.52;;;9.20;;
59310;SDS011;45078;51.654;21.250;2022-12-01T16:37:25;17.73;;;9.65;;
59310;SDS011;45078;51.654;21.250;2022-12-01T16:39:52;27.30;;;7.65;;
59310;SDS011;45078;51.654;21.250;2022-12-01T16:42:18;23.95;;;9.77;;
59310;SDS011;45078;51.654;21.250;2022-12-01T16:44:45;16.13;;;8.23;;
59310;SDS011;45078;51.654;21.250;2022-12-01T16:49:43;13.15;;;6.75;;
59310;SDS011;45078;51.654;21.250;2022-12-01T16:52:09;16.25;;;6.68;;
59310;SDS011;45078;51.654;21.250;2022-12-01T16:54:35;17.95;;;7.78;;
59310;SDS011;45078;51.654;21.250;2022-12-01T16:57:01;14.70;;;7.63;;
59310;SDS011;45078;51.654;21.250;2022-12-01T16:59:27;14.52;;;7.70;;
59310;SDS011;45078;51.654;21.250;2022-12-01T17:01:52;13.77;;;6.60;;
59310;SDS011;45078;51.654;21.250;2022-12-01T17:04:18;10.90;;;5.40;;
59310;SDS011;45078;51.654;21.250;2022-12-01T17:06:44;18.17;;;6.63;;
59310;SDS011;45078;51.654;21.250;2022-12-01T17:09:10;15.15;;;6.60;;
59310;SDS011;45078;51.654;21.250;2022-12-01T17:11:36;16.50;;;6.68;;
59310;SDS011;45078;51.654;21.250;2022-12-01T17:14:03;14.43;;;7.13;;
59310;SDS011;45078;51.654;21.250;2022-12-01T17:16:29;15.77;;;6.63;;
59310;SDS011;45078;51.654;21.250;2022-12-01T17:18:55;13.45;;;7.90;;
59310;SDS011;45078;51.654;21.250;2022-12-01T17:21:21;13.02;;;6.30;;
59310;SDS011;45078;51.654;21.250;2022-12-01T17:23:47;18.77;;;7.35;;
59310;SDS011;45078;51.654;21.250;2022-12-01T17:26:14;14.27;;;6.93;;
59310;SDS011;45078;51.654;21.250;2022-12-01T17:28:41;16.33;;;6.93;;
59310;SDS011;45078;51.654;21.250;2022-12-01T17:31:08;13.27;;;6.30;;
59310;SDS011;45078;51.654;21.250;2022-12-01T17:33:35;11.30;;;6.68;;
59310;SDS011;45078;51.654;21.250;2022-12-01T17:36:02;16.98;;;8.40;;
59310;SDS011;45078;51.654;21.250;2022-12-01T17:38:33;15.13;;;6.97;;
59310;SDS011;45078;51.654;21.250;2022-12-01T17:41:00;15.30;;;6.90;;
59310;SDS011;45078;51.654;21.250;2022-12-01T17:43:28;18.85;;;7.57;;
59310;SDS011;45078;51.654;21.250;2022-12-01T17:45:54;17.15;;;7.90;;